createdAt,value
2017-07-27T00:00:48.702Z,5.53
2017-07-27T00:03:16.941Z,5.83
2017-07-27T00:05:45.154Z,4.90
2017-07-27T00:08:13.378Z,5.60
2017-07-27T00:10:48.677Z,6.93
2017-07-27T00:13:16.891Z,6.70
2017-07-27T00:15:45.444Z,5.80
2017-07-27T00:18:13.692Z,5.23
2017-07-27T00:20:41.924Z,5.27
2017-07-27T00:23:10.159Z,5.70
2017-07-27T00:25:48.216Z,5.47
2017-07-27T00:28:17.258Z,6.33
2017-07-27T00:30:45.509Z,6.43
2017-07-27T00:33:14.533Z,5.47
2017-07-27T00:35:46.498Z,5.50
2017-07-27T00:41:15.622Z,5.80
2017-07-27T00:43:43.923Z,5.30
2017-07-27T00:46:12.185Z,6.60
2017-07-27T00:48:41.240Z,4.97
2017-07-27T00:54:09.304Z,5.80
2017-07-27T00:56:38.282Z,6.63
2017-07-27T00:59:07.289Z,5.10
2017-07-27T01:01:35.581Z,5.43
2017-07-27T01:04:03.800Z,6.13
2017-07-27T01:06:32.357Z,6.53
2017-07-27T01:09:00.617Z,6.00
2017-07-27T01:11:28.991Z,4.90
2017-07-27T01:13:57.988Z,5.53
2017-07-27T01:16:26.264Z,6.33
2017-07-27T01:18:54.473Z,5.50
2017-07-27T01:21:49.087Z,5.60
2017-07-27T01:24:17.319Z,6.10
2017-07-27T01:26:45.556Z,5.37
2017-07-27T01:29:14.592Z,5.20
2017-07-27T01:31:42.821Z,7.30
2017-07-27T01:34:11.829Z,5.50
2017-07-27T01:36:40.081Z,7.63
2017-07-27T01:39:08.295Z,6.80
2017-07-27T01:41:49.738Z,6.43
2017-07-27T01:44:17.954Z,5.80
2017-07-27T01:46:46.164Z,6.43
2017-07-27T01:52:15.867Z,7.53
2017-07-27T01:54:44.093Z,6.60
2017-07-27T01:57:12.306Z,6.00
2017-07-27T01:59:47.941Z,6.70
2017-07-27T02:05:16.697Z,5.90
2017-07-27T02:07:44.900Z,6.77
2017-07-27T02:10:13.114Z,6.13
2017-07-27T02:12:41.385Z,9.60
2017-07-27T02:18:09.676Z,6.33
2017-07-27T02:20:37.902Z,9.93
2017-07-27T02:23:06.127Z,6.37
2017-07-27T02:25:48.068Z,8.13
2017-07-27T02:28:16.275Z,8.13
2017-07-27T02:30:48.239Z,6.87
2017-07-27T02:36:18.517Z,10.93
2017-07-27T02:38:46.738Z,8.10
2017-07-27T02:41:14.960Z,11.87
2017-07-27T02:43:43.210Z,10.13
2017-07-27T02:46:11.451Z,9.40
2017-07-27T02:48:39.689Z,10.37
2017-07-27T02:51:07.954Z,9.13
2017-07-27T02:53:36.169Z,8.70
2017-07-27T02:56:04.381Z,9.10
2017-07-27T02:58:47.775Z,9.93
2017-07-27T03:01:16.004Z,8.60
2017-07-27T03:03:44.233Z,8.23
2017-07-27T03:06:12.464Z,9.30
2017-07-27T03:08:40.696Z,10.20
2017-07-27T03:14:09.241Z,10.37
2017-07-27T03:16:37.460Z,11.20
2017-07-27T03:19:05.677Z,13.60
2017-07-27T03:21:33.941Z,10.53
2017-07-27T03:24:02.166Z,11.80
2017-07-27T03:26:49.716Z,9.50
2017-07-27T03:29:17.933Z,10.37
2017-07-27T03:31:46.148Z,10.93
2017-07-27T03:34:14.406Z,8.60
2017-07-27T03:36:42.630Z,6.03
2017-07-27T03:39:11.622Z,11.07
2017-07-27T03:41:40.637Z,8.33
2017-07-27T03:44:08.841Z,8.47
2017-07-27T03:46:37.048Z,6.40
2017-07-27T03:49:05.311Z,9.07
2017-07-27T03:51:33.547Z,7.93
2017-07-27T03:54:01.780Z,10.87
2017-07-27T03:56:30.035Z,8.10
2017-07-27T03:58:58.251Z,8.00
2017-07-27T04:01:26.479Z,9.37
2017-07-27T04:03:54.724Z,9.13
2017-07-27T04:06:22.952Z,10.27
2017-07-27T04:08:51.178Z,11.70
2017-07-27T04:11:19.439Z,10.60
2017-07-27T04:13:47.661Z,8.90
2017-07-27T04:16:15.918Z,12.90
2017-07-27T04:18:44.161Z,12.37
2017-07-27T04:24:14.114Z,12.73
2017-07-27T04:26:42.334Z,10.23
2017-07-27T04:29:10.560Z,11.43
2017-07-27T04:31:38.826Z,9.70
2017-07-27T04:34:07.049Z,9.90
2017-07-27T04:36:35.265Z,10.10
2017-07-27T04:39:03.516Z,7.80
2017-07-27T04:41:32.517Z,10.67
2017-07-27T04:44:00.744Z,8.10
2017-07-27T04:46:29.016Z,6.63
2017-07-27T04:48:57.231Z,8.40
2017-07-27T04:51:25.452Z,9.90
2017-07-27T04:53:53.724Z,10.47
2017-07-27T04:56:21.947Z,9.50
2017-07-27T04:58:50.934Z,8.23
2017-07-27T05:01:19.187Z,9.63
2017-07-27T05:03:48.517Z,7.97
2017-07-27T05:06:16.730Z,8.20
2017-07-27T05:08:44.988Z,7.57
2017-07-27T05:11:13.967Z,8.90
2017-07-27T05:13:42.946Z,7.87
2017-07-27T05:16:11.224Z,7.90
2017-07-27T05:18:49.719Z,8.03
2017-07-27T05:21:17.969Z,7.63
2017-07-27T05:23:46.178Z,8.00
2017-07-27T05:26:14.402Z,9.60
2017-07-27T05:28:42.662Z,7.60
2017-07-27T05:34:10.924Z,7.97
2017-07-27T05:36:39.124Z,7.00
2017-07-27T05:39:08.111Z,6.30
2017-07-27T05:41:37.153Z,9.57
2017-07-27T05:44:05.375Z,8.03
2017-07-27T05:46:47.762Z,7.03
2017-07-27T05:49:15.978Z,10.00
2017-07-27T05:51:44.194Z,7.20
2017-07-27T05:54:12.463Z,7.50
2017-07-27T05:56:40.673Z,6.90
2017-07-27T06:02:09.655Z,6.93
2017-07-27T06:04:37.925Z,6.60
2017-07-27T06:07:06.140Z,6.53
2017-07-27T06:09:35.158Z,6.37
2017-07-27T06:12:03.386Z,7.67
2017-07-27T06:14:31.621Z,7.13
2017-07-27T06:16:59.877Z,6.40
2017-07-27T06:19:29.070Z,7.63
2017-07-27T06:21:57.294Z,8.20
2017-07-27T06:24:25.546Z,7.20
2017-07-27T06:26:53.789Z,7.10
2017-07-27T06:29:22.781Z,9.10
2017-07-27T06:31:51.825Z,7.43
2017-07-27T06:34:20.047Z,9.40
2017-07-27T06:36:49.036Z,10.73
2017-07-27T06:39:18.061Z,12.70
2017-07-27T06:41:46.278Z,10.70
2017-07-27T06:44:14.503Z,10.93
2017-07-27T06:46:42.771Z,11.30
2017-07-27T06:49:10.994Z,12.83
2017-07-27T06:51:39.224Z,13.30
2017-07-27T06:54:07.493Z,14.83
2017-07-27T06:56:35.718Z,13.70
2017-07-27T06:59:03.937Z,16.20
2017-07-27T07:01:32.955Z,15.60
2017-07-27T07:04:01.181Z,17.87
2017-07-27T07:06:29.399Z,22.00
2017-07-27T07:11:34.969Z,19.17
2017-07-27T07:14:03.239Z,20.50
2017-07-27T07:16:31.482Z,14.50
2017-07-27T07:19:00.461Z,20.13
2017-07-27T07:21:28.743Z,21.87
2017-07-27T07:23:57.753Z,18.80
2017-07-27T07:26:26.736Z,14.73
2017-07-27T07:28:55.802Z,16.83
2017-07-27T07:31:24.042Z,15.87
2017-07-27T07:33:52.257Z,16.03
2017-07-27T07:36:20.534Z,12.30
2017-07-27T07:38:48.756Z,15.23
2017-07-27T07:41:16.987Z,15.40
2017-07-27T07:43:45.257Z,15.03
2017-07-27T07:46:13.471Z,13.03
2017-07-27T07:48:41.704Z,15.27
2017-07-27T07:51:09.970Z,15.00
2017-07-27T07:53:38.193Z,16.83
2017-07-27T07:56:07.179Z,15.13
2017-07-27T07:58:36.230Z,16.40
2017-07-27T08:01:04.452Z,14.93
2017-07-27T08:06:34.226Z,15.63
2017-07-27T08:09:20.244Z,14.50
2017-07-27T08:11:48.511Z,14.37
2017-07-27T08:14:16.740Z,11.30
2017-07-27T08:16:51.047Z,12.70
2017-07-27T08:19:47.498Z,13.00
2017-07-27T08:22:16.016Z,14.60
2017-07-27T08:24:44.239Z,11.67
2017-07-27T08:27:12.481Z,12.90
2017-07-27T08:29:40.752Z,15.37
2017-07-27T08:32:08.975Z,11.90
2017-07-27T08:34:49.779Z,10.70
2017-07-27T08:37:18.007Z,12.30
2017-07-27T08:39:46.238Z,11.40
2017-07-27T08:42:14.491Z,13.70
2017-07-27T08:44:49.012Z,10.63
2017-07-27T08:47:17.265Z,11.33
2017-07-27T08:49:45.472Z,12.37
2017-07-27T08:52:13.682Z,12.97
2017-07-27T08:54:42.920Z,14.10
2017-07-27T08:57:11.129Z,11.60
2017-07-27T08:59:39.351Z,12.90
2017-07-27T09:02:07.612Z,12.77
2017-07-27T09:04:36.598Z,12.93
2017-07-27T09:07:05.601Z,12.10
2017-07-27T09:09:34.631Z,11.03
2017-07-27T09:12:02.867Z,12.70
2017-07-27T09:14:48.903Z,15.63
2017-07-27T09:17:17.125Z,13.67
2017-07-27T09:19:45.341Z,12.40
2017-07-27T09:22:13.578Z,11.37
2017-07-27T09:24:48.497Z,11.23
2017-07-27T09:27:16.749Z,13.70
2017-07-27T09:29:50.914Z,12.77
2017-07-27T09:32:19.203Z,11.00
2017-07-27T09:34:47.421Z,10.77
2017-07-27T09:37:15.673Z,12.00
2017-07-27T09:39:43.929Z,12.80
2017-07-27T09:42:12.157Z,9.80
2017-07-27T09:44:40.377Z,14.20
2017-07-27T09:47:08.642Z,11.30
2017-07-27T09:49:36.861Z,12.70
2017-07-27T09:52:05.091Z,11.30
2017-07-27T09:57:54.175Z,11.43
2017-07-27T10:00:22.384Z,13.00
2017-07-27T10:02:50.595Z,10.87
2017-07-27T10:05:19.635Z,11.47
2017-07-27T10:07:47.879Z,13.07
2017-07-27T10:10:16.878Z,13.80
2017-07-27T10:12:45.154Z,12.07
2017-07-27T10:15:13.378Z,13.27
2017-07-27T10:17:41.597Z,13.77
2017-07-27T10:20:10.626Z,12.27
2017-07-27T10:22:49.282Z,15.37
2017-07-27T10:28:18.238Z,11.80
2017-07-27T10:30:46.450Z,11.50
2017-07-27T10:33:14.657Z,11.40
2017-07-27T10:38:50.645Z,11.80
2017-07-27T10:41:18.876Z,12.63
2017-07-27T10:43:47.097Z,11.53
2017-07-27T10:52:16.605Z,11.50
2017-07-27T10:54:44.827Z,11.70
2017-07-27T10:57:13.044Z,11.27
2017-07-27T10:59:41.312Z,10.50
2017-07-27T11:02:09.545Z,14.87
2017-07-27T11:04:37.756Z,11.90
2017-07-27T11:07:06.013Z,13.73
2017-07-27T11:09:34.268Z,10.90
2017-07-27T11:12:02.484Z,14.97
2017-07-27T11:14:30.741Z,11.60
2017-07-27T11:16:58.969Z,13.37
2017-07-27T11:19:27.178Z,11.13
2017-07-27T11:21:55.460Z,11.20
2017-07-27T11:24:23.682Z,11.60
2017-07-27T11:26:51.908Z,10.33
2017-07-27T11:29:20.186Z,11.90
2017-07-27T11:31:49.126Z,13.10
2017-07-27T11:34:47.649Z,11.17
2017-07-27T11:37:15.897Z,14.03
2017-07-27T11:39:44.883Z,12.57
2017-07-27T11:42:13.153Z,12.50
2017-07-27T11:44:41.371Z,13.20
2017-07-27T11:47:09.607Z,10.37
2017-07-27T11:49:37.885Z,11.07
2017-07-27T11:52:06.873Z,11.60
2017-07-27T11:54:35.102Z,13.03
2017-07-27T11:57:03.358Z,10.03
2017-07-27T11:59:48.846Z,10.70
2017-07-27T12:05:17.281Z,10.40
2017-07-27T12:07:45.509Z,10.73
2017-07-27T12:10:13.743Z,11.00
2017-07-27T12:12:42.014Z,9.90
2017-07-27T12:15:10.229Z,9.87
2017-07-27T12:17:38.467Z,13.07
2017-07-27T12:20:06.729Z,10.97
2017-07-27T12:22:34.995Z,12.73
2017-07-27T12:25:03.222Z,10.87
2017-07-27T12:27:48.931Z,10.33
2017-07-27T12:30:17.161Z,15.00
2017-07-27T12:32:45.401Z,9.60
2017-07-27T12:35:13.672Z,12.13
2017-07-27T12:37:41.886Z,11.17
2017-07-27T12:40:10.120Z,11.13
2017-07-27T12:42:38.375Z,10.10
2017-07-27T12:45:06.587Z,9.50
2017-07-27T12:47:34.801Z,9.93
2017-07-27T12:53:04.061Z,12.77
2017-07-27T12:55:48.923Z,14.43
2017-07-27T12:58:17.217Z,12.30
2017-07-27T13:00:45.453Z,13.37
2017-07-27T13:03:13.680Z,11.13
2017-07-27T13:05:41.996Z,9.73
2017-07-27T13:08:10.243Z,13.80
2017-07-27T13:10:39.236Z,13.70
2017-07-27T13:13:07.490Z,13.10
2017-07-27T13:15:35.705Z,12.40
2017-07-27T13:18:04.702Z,11.43
2017-07-27T13:23:48.577Z,10.73
2017-07-27T13:29:17.760Z,13.83
2017-07-27T13:31:46.011Z,9.97
2017-07-27T13:34:14.244Z,12.00
2017-07-27T13:36:49.425Z,12.90
2017-07-27T13:41:37.707Z,12.77
2017-07-27T13:44:06.741Z,12.40
2017-07-27T13:46:48.339Z,10.87
2017-07-27T13:49:16.623Z,9.60
2017-07-27T13:51:51.382Z,8.50
2017-07-27T13:54:47.105Z,10.93
2017-07-27T13:57:15.343Z,8.13
2017-07-27T13:59:43.562Z,8.87
2017-07-27T14:02:12.595Z,8.17
2017-07-27T14:04:40.888Z,9.93
2017-07-27T14:07:09.132Z,9.20
2017-07-27T14:09:50.711Z,9.10
2017-07-27T14:12:18.942Z,8.90
2017-07-27T14:14:47.178Z,9.10
2017-07-27T14:17:15.456Z,9.93
2017-07-27T14:19:49.670Z,12.63
2017-07-27T14:22:17.983Z,10.37
2017-07-27T14:24:46.230Z,9.57
2017-07-27T14:27:14.462Z,9.40
2017-07-27T14:29:43.507Z,10.80
2017-07-27T14:32:11.732Z,11.70
2017-07-27T14:34:39.946Z,8.77
2017-07-27T14:37:08.205Z,9.60
2017-07-27T14:39:36.441Z,8.50
2017-07-27T14:42:04.672Z,10.83
2017-07-27T14:44:32.934Z,11.40
2017-07-27T14:47:01.159Z,9.63
2017-07-27T14:49:29.381Z,8.80
2017-07-27T14:51:57.655Z,9.10
2017-07-27T14:54:25.883Z,10.57
2017-07-27T14:56:54.111Z,9.17
2017-07-27T14:59:22.387Z,10.73
2017-07-27T15:01:50.615Z,9.83
2017-07-27T15:06:57.370Z,8.80
2017-07-27T15:09:25.595Z,8.80
2017-07-27T15:11:54.588Z,8.33
2017-07-27T15:14:23.617Z,9.10
2017-07-27T15:16:51.847Z,9.20
2017-07-27T15:19:20.840Z,9.30
2017-07-27T15:21:49.123Z,9.87
2017-07-27T15:24:18.116Z,10.20
2017-07-27T15:26:47.108Z,10.57
2017-07-27T15:29:16.133Z,8.80
2017-07-27T15:31:44.351Z,8.57
2017-07-27T15:34:12.564Z,9.70
2017-07-27T15:36:40.851Z,11.30
2017-07-27T15:42:09.714Z,9.80
2017-07-27T15:44:37.960Z,11.80
2017-07-27T15:47:06.208Z,10.60
2017-07-27T15:49:34.486Z,9.07
2017-07-27T15:52:02.756Z,9.40
2017-07-27T15:54:31.644Z,17.60
2017-07-27T15:56:59.914Z,9.00
2017-07-27T15:59:28.142Z,10.33
2017-07-27T16:04:56.691Z,14.30
2017-07-27T16:07:24.916Z,10.17
2017-07-27T16:09:53.150Z,9.70
2017-07-27T16:12:47.395Z,16.00
2017-07-27T16:15:15.620Z,12.97
2017-07-27T16:17:43.852Z,9.40
2017-07-27T16:20:12.928Z,10.67
2017-07-27T16:22:48.597Z,9.70
2017-07-27T16:25:47.366Z,8.97
2017-07-27T16:28:15.582Z,8.00
2017-07-27T16:30:44.574Z,13.60
2017-07-27T16:33:13.608Z,11.67
2017-07-27T16:35:41.836Z,8.20
2017-07-27T16:41:10.840Z,11.20
2017-07-27T16:43:39.866Z,9.90
2017-07-27T16:46:08.088Z,10.60
2017-07-27T16:48:36.399Z,12.57
2017-07-27T16:51:04.638Z,10.50
2017-07-27T16:53:32.869Z,8.43
2017-07-27T16:56:01.476Z,12.20
2017-07-27T17:01:29.981Z,9.57
2017-07-27T17:03:58.214Z,12.27
2017-07-27T17:09:27.880Z,9.43
2017-07-27T17:11:56.112Z,23.97
2017-07-27T17:14:24.339Z,11.07
2017-07-27T17:16:52.600Z,8.60
2017-07-27T17:19:20.827Z,9.57
2017-07-27T17:21:49.855Z,10.10
2017-07-27T17:24:47.606Z,13.10
2017-07-27T17:27:15.863Z,8.83
2017-07-27T17:29:44.116Z,8.80
2017-07-27T17:32:12.397Z,10.60
2017-07-27T17:37:18.801Z,9.43
2017-07-27T17:39:47.025Z,11.07
2017-07-27T17:42:15.363Z,9.70
2017-07-27T17:44:43.622Z,9.70
2017-07-27T17:47:11.876Z,13.20
2017-07-27T17:49:49.959Z,9.20
2017-07-27T17:52:48.661Z,10.20
2017-07-27T17:55:16.923Z,12.40
2017-07-27T17:57:51.364Z,10.27
2017-07-27T18:00:19.633Z,14.10
2017-07-27T18:05:21.875Z,11.60
2017-07-27T18:07:50.115Z,10.20
2017-07-27T18:10:19.116Z,11.03
2017-07-27T18:12:48.558Z,9.20
2017-07-27T18:15:16.819Z,10.77
2017-07-27T18:17:48.937Z,9.60
2017-07-27T18:23:18.914Z,9.60
2017-07-27T18:25:47.151Z,9.73
2017-07-27T18:28:15.435Z,11.90
2017-07-27T18:30:43.752Z,11.20
2017-07-27T18:33:12.053Z,9.40
2017-07-27T18:35:40.283Z,9.90
2017-07-27T18:38:08.787Z,9.70
2017-07-27T18:40:37.029Z,9.13
2017-07-27T18:43:06.071Z,13.10
2017-07-27T18:45:34.413Z,9.83
2017-07-27T18:48:02.647Z,11.83
2017-07-27T18:50:30.872Z,11.50
2017-07-27T18:52:59.176Z,15.00
2017-07-27T18:55:27.402Z,12.00
2017-07-27T18:57:56.397Z,12.10
2017-07-27T19:00:25.436Z,10.67
2017-07-27T19:02:53.695Z,10.90
2017-07-27T19:05:21.925Z,8.50
2017-07-27T19:07:50.951Z,9.63
2017-07-27T19:10:19.192Z,9.43
2017-07-27T19:12:48.195Z,10.27
2017-07-27T19:15:17.866Z,9.80
2017-07-27T19:17:49.392Z,9.80
2017-07-27T19:20:17.614Z,8.50
2017-07-27T19:22:45.871Z,12.50
2017-07-27T19:25:14.143Z,12.27
2017-07-27T19:27:42.376Z,10.13
2017-07-27T19:30:10.681Z,9.37
2017-07-27T19:32:38.914Z,10.70
2017-07-27T19:35:07.927Z,12.60
2017-07-27T19:37:36.433Z,12.13
2017-07-27T19:40:04.888Z,13.10
2017-07-27T19:42:48.429Z,16.53
2017-07-27T19:48:16.589Z,14.23
2017-07-27T19:50:44.836Z,14.87
2017-07-27T19:53:13.121Z,11.10
2017-07-27T19:55:49.372Z,12.47
2017-07-27T19:58:47.835Z,12.47
2017-07-27T20:01:16.108Z,14.07
2017-07-27T20:03:44.359Z,13.80
2017-07-27T20:06:12.594Z,8.77
2017-07-27T20:08:41.656Z,12.10
2017-07-27T20:11:09.882Z,13.77
2017-07-27T20:13:49.179Z,17.03
2017-07-27T20:16:17.428Z,11.13
2017-07-27T20:18:45.649Z,10.80
2017-07-27T20:21:13.926Z,11.03
2017-07-27T20:26:49.415Z,10.87
2017-07-27T20:29:48.325Z,10.20
2017-07-27T20:32:16.582Z,9.43
2017-07-27T20:34:44.829Z,10.80
2017-07-27T20:37:13.074Z,11.40
2017-07-27T20:39:41.345Z,9.60
2017-07-27T20:42:09.581Z,12.07
2017-07-27T20:44:38.106Z,10.53
2017-07-27T20:47:06.721Z,12.83
2017-07-27T20:49:35.731Z,17.83
2017-07-27T20:52:03.978Z,10.90
2017-07-27T20:54:32.255Z,13.17
2017-07-27T20:57:00.505Z,11.10
2017-07-27T20:59:28.739Z,11.40
2017-07-27T21:01:57.387Z,11.07
2017-07-27T21:04:49.289Z,10.50
2017-07-27T21:07:17.575Z,14.20
2017-07-27T21:09:49.418Z,10.60
2017-07-27T21:12:17.707Z,11.20
2017-07-27T21:14:46.580Z,10.90
2017-07-27T21:17:14.805Z,10.30
2017-07-27T21:19:50.174Z,14.90
2017-07-27T21:22:48.783Z,14.70
2017-07-27T21:25:17.071Z,17.50
2017-07-27T21:27:45.292Z,14.30
2017-07-27T21:30:14.308Z,21.20
2017-07-27T21:32:42.590Z,26.03
2017-07-27T21:35:10.832Z,23.67
2017-07-27T21:37:50.442Z,23.17
2017-07-27T21:40:18.672Z,22.77
2017-07-27T21:42:47.196Z,23.27
2017-07-27T21:45:15.778Z,21.70
2017-07-27T21:47:44.011Z,24.97
2017-07-27T21:50:12.237Z,17.77
2017-07-27T21:55:41.060Z,10.73
2017-07-27T21:58:09.305Z,11.70
2017-07-27T22:00:37.565Z,12.40
2017-07-27T22:03:05.854Z,19.70
2017-07-27T22:05:48.911Z,12.23
2017-07-27T22:08:17.979Z,11.70
2017-07-27T22:10:46.229Z,10.40
2017-07-27T22:13:15.206Z,11.90
2017-07-27T22:18:43.443Z,24.23
2017-07-27T22:21:11.719Z,12.97
2017-07-27T22:23:39.941Z,11.83
2017-07-27T22:26:08.199Z,12.40
2017-07-27T22:28:50.410Z,12.60
2017-07-27T22:31:49.397Z,11.57
2017-07-27T22:34:18.387Z,11.20
2017-07-27T22:36:46.626Z,11.03
2017-07-27T22:45:16.573Z,10.23
2017-07-27T22:47:45.615Z,11.20
2017-07-27T22:50:14.593Z,12.30
2017-07-27T22:52:42.884Z,12.00
2017-07-27T22:55:11.882Z,10.10
2017-07-27T22:57:40.892Z,9.47
2017-07-27T23:00:09.174Z,10.93
2017-07-27T23:02:50.151Z,12.17
2017-07-27T23:05:18.412Z,10.50
2017-07-27T23:07:46.638Z,11.30
2017-07-27T23:13:14.642Z,10.73
2017-07-27T23:15:42.875Z,10.93
2017-07-27T23:18:11.115Z,9.70
2017-07-27T23:20:40.148Z,10.90
2017-07-27T23:23:08.388Z,13.40
2017-07-27T23:25:50.034Z,10.33
2017-07-27T23:28:18.273Z,9.57
2017-07-27T23:30:49.918Z,9.83
2017-07-27T23:33:18.145Z,11.30
2017-07-27T23:35:46.384Z,9.70
2017-07-27T23:41:15.622Z,10.60
2017-07-27T23:43:43.847Z,9.27
2017-07-27T23:46:12.079Z,8.70
2017-07-27T23:48:40.356Z,11.57
2017-07-27T23:51:08.592Z,9.13
2017-07-27T23:53:49.432Z,9.90
2017-07-27T23:56:18.444Z,9.00
2017-07-27T23:58:50.552Z,9.37
